KNRS

Imperial Beach Nolf (Ream Field) Airport

Imperial Beach, California, USA
METAR KNRS 110156Z 00000KT 9SM SCT010 BKN250 15/13 A3004 RMK AO2 SLP170 T01500133 PNO $
Observed Flight Rules
Dec-11 @ 01:56 UTC (30 minutes ago) Visual Flight Rules
Visibility Clouds
9 miles
  • Scattered at 1,000' AGL
  • Broken at 25,000' AGL
Temperatures Readings
Current 15°C / 59°F
Dewpoint 13°C / 55°F
Humidity 88%
Altimeter 30.04" Hg
Pressure 1017 hPa
Elevation 7
METAR KNRS 110156Z 00000KT 9SM SCT010 BKN250 15/13 A3004 RMK AO2 SLP170 T01500133 PNO $
Observed Flight Rules
Dec-11 @ 01:56 UTC
(30 minutes ago)
VFR
Clouds
  • Scattered at 1,000' AGL
  • Broken at 25,000' AGL
Temperature Dewpoint
15°C / 59°F 13°C / 55°F
Humidity Altimeter Pressure
88% 30.04" Hg 1017 hPa